sensor_id;sensor_type;location;lat;lon;timestamp;P1;durP1;ratioP1;P2;durP2;ratioP2
63699;SDS011;49845;47.130;142.766;2023-01-16T00:00:26;4.80;;;3.25;;
63699;SDS011;49845;47.130;142.766;2023-01-16T00:02:57;3.38;;;3.08;;
63699;SDS011;49845;47.130;142.766;2023-01-16T00:05:28;3.58;;;3.25;;
63699;SDS011;49845;47.130;142.766;2023-01-16T00:07:58;4.55;;;3.33;;
63699;SDS011;49845;47.130;142.766;2023-01-16T00:10:30;3.65;;;3.25;;
63699;SDS011;49845;47.130;142.766;2023-01-16T00:13:01;4.45;;;3.20;;
63699;SDS011;49845;47.130;142.766;2023-01-16T00:15:32;3.60;;;3.28;;
63699;SDS011;49845;47.130;142.766;2023-01-16T00:18:03;3.53;;;3.20;;
63699;SDS011;49845;47.130;142.766;2023-01-16T00:20:33;3.28;;;2.97;;
63699;SDS011;49845;47.130;142.766;2023-01-16T00:23:04;3.35;;;3.05;;
63699;SDS011;49845;47.130;142.766;2023-01-16T00:25:39;3.58;;;3.28;;
63699;SDS011;49845;47.130;142.766;2023-01-16T00:28:11;3.60;;;2.97;;
63699;SDS011;49845;47.130;142.766;2023-01-16T00:30:42;3.95;;;2.90;;
63699;SDS011;49845;47.130;142.766;2023-01-16T00:33:13;2.70;;;2.50;;
63699;SDS011;49845;47.130;142.766;2023-01-16T00:35:46;3.13;;;2.92;;
63699;SDS011;49845;47.130;142.766;2023-01-16T00:38:16;5.45;;;3.20;;
63699;SDS011;49845;47.130;142.766;2023-01-16T00:40:49;3.50;;;3.20;;
63699;SDS011;49845;47.130;142.766;2023-01-16T00:43:19;3.30;;;2.97;;
63699;SDS011;49845;47.130;142.766;2023-01-16T00:45:51;5.20;;;3.28;;
63699;SDS011;49845;47.130;142.766;2023-01-16T00:48:21;4.20;;;3.33;;
63699;SDS011;49845;47.130;142.766;2023-01-16T00:50:52;4.95;;;2.70;;
63699;SDS011;49845;47.130;142.766;2023-01-16T00:53:23;3.28;;;3.00;;
63699;SDS011;49845;47.130;142.766;2023-01-16T00:55:55;6.32;;;3.63;;
63699;SDS011;49845;47.130;142.766;2023-01-16T00:58:25;3.50;;;3.20;;
63699;SDS011;49845;47.130;142.766;2023-01-16T01:00:56;3.83;;;3.20;;
63699;SDS011;49845;47.130;142.766;2023-01-16T01:03:27;6.50;;;2.70;;
63699;SDS011;49845;47.130;142.766;2023-01-16T01:05:57;5.18;;;3.13;;
63699;SDS011;49845;47.130;142.766;2023-01-16T01:08:28;6.82;;;3.78;;
63699;SDS011;49845;47.130;142.766;2023-01-16T01:11:03;6.70;;;3.00;;
63699;SDS011;49845;47.130;142.766;2023-01-16T01:13:35;3.35;;;3.05;;
63699;SDS011;49845;47.130;142.766;2023-01-16T01:16:07;3.05;;;2.85;;
63699;SDS011;49845;47.130;142.766;2023-01-16T01:18:38;3.70;;;3.25;;
63699;SDS011;49845;47.130;142.766;2023-01-16T01:21:10;3.13;;;2.83;;
63699;SDS011;49845;47.130;142.766;2023-01-16T01:23:41;4.97;;;3.47;;
63699;SDS011;49845;47.130;142.766;2023-01-16T01:26:13;3.28;;;2.97;;
63699;SDS011;49845;47.130;142.766;2023-01-16T01:28:48;4.53;;;2.95;;
63699;SDS011;49845;47.130;142.766;2023-01-16T01:31:19;3.00;;;2.75;;
63699;SDS011;49845;47.130;142.766;2023-01-16T01:33:49;4.78;;;2.65;;
63699;SDS011;49845;47.130;142.766;2023-01-16T01:36:20;3.75;;;2.63;;
63699;SDS011;49845;47.130;142.766;2023-01-16T01:38:50;2.88;;;2.60;;
63699;SDS011;49845;47.130;142.766;2023-01-16T01:41:22;7.10;;;3.53;;
63699;SDS011;49845;47.130;142.766;2023-01-16T01:43:54;3.65;;;2.88;;
63699;SDS011;49845;47.130;142.766;2023-01-16T01:46:26;5.47;;;2.90;;
63699;SDS011;49845;47.130;142.766;2023-01-16T01:49:00;2.97;;;2.47;;
63699;SDS011;49845;47.130;142.766;2023-01-16T01:51:37;3.67;;;3.00;;
63699;SDS011;49845;47.130;142.766;2023-01-16T01:54:10;3.03;;;2.83;;
63699;SDS011;49845;47.130;142.766;2023-01-16T01:56:47;4.28;;;3.22;;
63699;SDS011;49845;47.130;142.766;2023-01-16T01:59:21;3.55;;;2.85;;
63699;SDS011;49845;47.130;142.766;2023-01-16T02:01:54;3.30;;;2.92;;
63699;SDS011;49845;47.130;142.766;2023-01-16T02:04:27;3.05;;;2.72;;
63699;SDS011;49845;47.130;142.766;2023-01-16T02:07:00;2.70;;;2.50;;
63699;SDS011;49845;47.130;142.766;2023-01-16T02:09:34;3.05;;;2.75;;
63699;SDS011;49845;47.130;142.766;2023-01-16T02:12:08;3.22;;;2.78;;
63699;SDS011;49845;47.130;142.766;2023-01-16T02:14:40;2.85;;;2.65;;
63699;SDS011;49845;47.130;142.766;2023-01-16T02:17:13;2.95;;;2.65;;
63699;SDS011;49845;47.130;142.766;2023-01-16T02:20:14;4.50;;;3.28;;
63699;SDS011;49845;47.130;142.766;2023-01-16T02:22:55;4.05;;;3.10;;
63699;SDS011;49845;47.130;142.766;2023-01-16T02:32:18;2.65;;;2.47;;
63699;SDS011;49845;47.130;142.766;2023-01-16T02:35:06;2.70;;;2.50;;
63699;SDS011;49845;47.130;142.766;2023-01-16T02:37:59;3.25;;;2.58;;
63699;SDS011;49845;47.130;142.766;2023-01-16T02:40:37;3.80;;;3.22;;
63699;SDS011;49845;47.130;142.766;2023-01-16T02:43:14;3.20;;;2.90;;
63699;SDS011;49845;47.130;142.766;2023-01-16T02:45:56;2.58;;;2.38;;
63699;SDS011;49845;47.130;142.766;2023-01-16T02:48:39;3.00;;;2.70;;
63699;SDS011;49845;47.130;142.766;2023-01-16T02:51:17;6.43;;;2.92;;
63699;SDS011;49845;47.130;142.766;2023-01-16T02:53:59;2.70;;;2.50;;
63699;SDS011;49845;47.130;142.766;2023-01-16T02:59:13;2.90;;;2.60;;
63699;SDS011;49845;47.130;142.766;2023-01-16T03:01:45;2.97;;;2.78;;
63699;SDS011;49845;47.130;142.766;2023-01-16T03:04:40;2.97;;;2.70;;
63699;SDS011;49845;47.130;142.766;2023-01-16T03:07:23;2.50;;;2.30;;
63699;SDS011;49845;47.130;142.766;2023-01-16T03:10:06;2.80;;;2.60;;
63699;SDS011;49845;47.130;142.766;2023-01-16T03:13:00;3.00;;;2.70;;
63699;SDS011;49845;47.130;142.766;2023-01-16T03:15:44;7.00;;;3.10;;
63699;SDS011;49845;47.130;142.766;2023-01-16T03:18:24;4.28;;;2.55;;
63699;SDS011;49845;47.130;142.766;2023-01-16T03:23:52;4.25;;;2.88;;
63699;SDS011;49845;47.130;142.766;2023-01-16T03:26:26;2.95;;;2.45;;
63699;SDS011;49845;47.130;142.766;2023-01-16T03:29:02;3.00;;;2.45;;
63699;SDS011;49845;47.130;142.766;2023-01-16T03:31:38;2.65;;;2.45;;
63699;SDS011;49845;47.130;142.766;2023-01-16T03:34:15;2.58;;;2.33;;
63699;SDS011;49845;47.130;142.766;2023-01-16T03:36:52;2.78;;;2.47;;
63699;SDS011;49845;47.130;142.766;2023-01-16T03:39:28;4.07;;;2.92;;
63699;SDS011;49845;47.130;142.766;2023-01-16T03:42:03;4.57;;;2.70;;
63699;SDS011;49845;47.130;142.766;2023-01-16T03:44:37;3.50;;;2.70;;
63699;SDS011;49845;47.130;142.766;2023-01-16T03:47:12;3.80;;;2.67;;
63699;SDS011;49845;47.130;142.766;2023-01-16T03:49:50;7.72;;;3.00;;
63699;SDS011;49845;47.130;142.766;2023-01-16T03:52:25;2.53;;;2.33;;
63699;SDS011;49845;47.130;142.766;2023-01-16T03:55:07;2.67;;;2.47;;
63699;SDS011;49845;47.130;142.766;2023-01-16T03:57:48;4.93;;;2.78;;
63699;SDS011;49845;47.130;142.766;2023-01-16T04:00:22;3.15;;;2.40;;
63699;SDS011;49845;47.130;142.766;2023-01-16T04:02:56;3.95;;;2.60;;
63699;SDS011;49845;47.130;142.766;2023-01-16T04:05:35;3.05;;;2.70;;
63699;SDS011;49845;47.130;142.766;2023-01-16T04:08:11;4.45;;;2.42;;
63699;SDS011;49845;47.130;142.766;2023-01-16T04:10:48;3.60;;;2.33;;
63699;SDS011;49845;47.130;142.766;2023-01-16T04:13:21;4.95;;;2.80;;
63699;SDS011;49845;47.130;142.766;2023-01-16T04:15:56;6.65;;;2.85;;
63699;SDS011;49845;47.130;142.766;2023-01-16T04:18:30;4.25;;;2.40;;
63699;SDS011;49845;47.130;142.766;2023-01-16T04:21:04;3.13;;;2.42;;
63699;SDS011;49845;47.130;142.766;2023-01-16T04:23:36;3.90;;;2.30;;
63699;SDS011;49845;47.130;142.766;2023-01-16T04:26:09;2.50;;;2.30;;
63699;SDS011;49845;47.130;142.766;2023-01-16T04:28:39;5.28;;;2.50;;
63699;SDS011;49845;47.130;142.766;2023-01-16T04:31:10;5.53;;;2.67;;
63699;SDS011;49845;47.130;142.766;2023-01-16T04:33:40;2.75;;;2.42;;
63699;SDS011;49845;47.130;142.766;2023-01-16T04:36:11;4.03;;;2.63;;
63699;SDS011;49845;47.130;142.766;2023-01-16T04:38:41;2.78;;;2.53;;
63699;SDS011;49845;47.130;142.766;2023-01-16T04:41:14;3.75;;;2.55;;
63699;SDS011;49845;47.130;142.766;2023-01-16T04:44:04;2.40;;;2.08;;
63699;SDS011;49845;47.130;142.766;2023-01-16T04:46:36;4.93;;;2.53;;
63699;SDS011;49845;47.130;142.766;2023-01-16T04:49:07;5.10;;;2.70;;
63699;SDS011;49845;47.130;142.766;2023-01-16T04:51:37;4.70;;;2.53;;
63699;SDS011;49845;47.130;142.766;2023-01-16T04:54:09;2.85;;;2.22;;
63699;SDS011;49845;47.130;142.766;2023-01-16T04:56:45;8.38;;;4.60;;
63699;SDS011;49845;47.130;142.766;2023-01-16T04:59:17;14.68;;;5.78;;
63699;SDS011;49845;47.130;142.766;2023-01-16T05:01:47;7.43;;;4.13;;
63699;SDS011;49845;47.130;142.766;2023-01-16T05:04:18;9.93;;;5.30;;
63699;SDS011;49845;47.130;142.766;2023-01-16T05:06:48;8.48;;;3.95;;
63699;SDS011;49845;47.130;142.766;2023-01-16T05:09:19;10.82;;;5.43;;
63699;SDS011;49845;47.130;142.766;2023-01-16T05:11:51;6.55;;;2.65;;
63699;SDS011;49845;47.130;142.766;2023-01-16T05:14:22;4.35;;;2.60;;
63699;SDS011;49845;47.130;142.766;2023-01-16T05:16:53;4.28;;;2.40;;
63699;SDS011;49845;47.130;142.766;2023-01-16T05:19:23;4.40;;;2.90;;
63699;SDS011;49845;47.130;142.766;2023-01-16T05:21:54;3.28;;;2.85;;
63699;SDS011;49845;47.130;142.766;2023-01-16T05:24:25;2.95;;;2.33;;
63699;SDS011;49845;47.130;142.766;2023-01-16T05:26:57;3.92;;;2.60;;
63699;SDS011;49845;47.130;142.766;2023-01-16T05:29:28;2.97;;;2.35;;
63699;SDS011;49845;47.130;142.766;2023-01-16T05:31:58;2.42;;;2.25;;
63699;SDS011;49845;47.130;142.766;2023-01-16T05:34:29;5.82;;;2.90;;
63699;SDS011;49845;47.130;142.766;2023-01-16T05:36:59;4.20;;;3.10;;
63699;SDS011;49845;47.130;142.766;2023-01-16T05:39:30;6.88;;;2.90;;
63699;SDS011;49845;47.130;142.766;2023-01-16T05:42:02;2.97;;;2.40;;
63699;SDS011;49845;47.130;142.766;2023-01-16T05:44:48;2.45;;;2.22;;
63699;SDS011;49845;47.130;142.766;2023-01-16T05:47:19;2.50;;;2.30;;
63699;SDS011;49845;47.130;142.766;2023-01-16T05:49:50;3.45;;;2.70;;
63699;SDS011;49845;47.130;142.766;2023-01-16T05:52:20;3.03;;;2.30;;
63699;SDS011;49845;47.130;142.766;2023-01-16T05:54:51;2.95;;;2.47;;
63699;SDS011;49845;47.130;142.766;2023-01-16T05:57:23;2.78;;;2.58;;
63699;SDS011;49845;47.130;142.766;2023-01-16T05:59:54;5.25;;;2.55;;
63699;SDS011;49845;47.130;142.766;2023-01-16T06:02:25;3.08;;;2.28;;
63699;SDS011;49845;47.130;142.766;2023-01-16T06:04:55;2.60;;;2.30;;
63699;SDS011;49845;47.130;142.766;2023-01-16T06:07:25;3.47;;;2.65;;
63699;SDS011;49845;47.130;142.766;2023-01-16T06:09:56;6.22;;;3.65;;
63699;SDS011;49845;47.130;142.766;2023-01-16T06:12:28;55.72;;;16.25;;
63699;SDS011;49845;47.130;142.766;2023-01-16T06:15:01;61.80;;;18.05;;
63699;SDS011;49845;47.130;142.766;2023-01-16T06:17:32;47.72;;;13.60;;
63699;SDS011;49845;47.130;142.766;2023-01-16T06:20:02;57.15;;;15.77;;
63699;SDS011;49845;47.130;142.766;2023-01-16T06:22:33;94.82;;;21.38;;
63699;SDS011;49845;47.130;142.766;2023-01-16T06:25:04;163.35;;;34.85;;
63699;SDS011;49845;47.130;142.766;2023-01-16T06:27:37;172.15;;;38.72;;
63699;SDS011;49845;47.130;142.766;2023-01-16T06:30:08;140.15;;;33.42;;
63699;SDS011;49845;47.130;142.766;2023-01-16T06:32:39;114.40;;;30.38;;
63699;SDS011;49845;47.130;142.766;2023-01-16T06:35:10;90.00;;;24.23;;
63699;SDS011;49845;47.130;142.766;2023-01-16T06:37:40;43.35;;;12.07;;
63699;SDS011;49845;47.130;142.766;2023-01-16T06:40:11;59.65;;;16.67;;
63699;SDS011;49845;47.130;142.766;2023-01-16T06:42:43;60.05;;;15.65;;
63699;SDS011;49845;47.130;142.766;2023-01-16T06:45:13;80.50;;;19.98;;
63699;SDS011;49845;47.130;142.766;2023-01-16T06:47:44;126.65;;;30.50;;
63699;SDS011;49845;47.130;142.766;2023-01-16T06:50:20;95.70;;;25.17;;
63699;SDS011;49845;47.130;142.766;2023-01-16T06:52:51;96.45;;;27.88;;
63699;SDS011;49845;47.130;142.766;2023-01-16T06:55:21;66.72;;;20.65;;
63699;SDS011;49845;47.130;142.766;2023-01-16T06:57:53;26.17;;;9.15;;
63699;SDS011;49845;47.130;142.766;2023-01-16T07:00:24;32.72;;;12.27;;
63699;SDS011;49845;47.130;142.766;2023-01-16T07:02:55;27.75;;;10.00;;
63699;SDS011;49845;47.130;142.766;2023-01-16T07:05:26;8.00;;;5.15;;
63699;SDS011;49845;47.130;142.766;2023-01-16T07:07:58;8.40;;;4.93;;
63699;SDS011;49845;47.130;142.766;2023-01-16T07:10:28;9.43;;;4.72;;
63699;SDS011;49845;47.130;142.766;2023-01-16T07:13:00;6.72;;;3.78;;
63699;SDS011;49845;47.130;142.766;2023-01-16T07:15:31;6.70;;;3.80;;
63699;SDS011;49845;47.130;142.766;2023-01-16T07:18:19;17.25;;;6.80;;
63699;SDS011;49845;47.130;142.766;2023-01-16T07:21:10;29.60;;;9.55;;
63699;SDS011;49845;47.130;142.766;2023-01-16T07:24:00;45.63;;;23.48;;
63699;SDS011;49845;47.130;142.766;2023-01-16T07:26:33;17.67;;;11.20;;
63699;SDS011;49845;47.130;142.766;2023-01-16T07:29:08;18.98;;;9.35;;
63699;SDS011;49845;47.130;142.766;2023-01-16T07:31:39;7.68;;;5.38;;
63699;SDS011;49845;47.130;142.766;2023-01-16T07:34:10;7.97;;;5.30;;
63699;SDS011;49845;47.130;142.766;2023-01-16T07:36:41;11.10;;;5.90;;
63699;SDS011;49845;47.130;142.766;2023-01-16T07:39:11;5.07;;;4.32;;
63699;SDS011;49845;47.130;142.766;2023-01-16T07:41:41;9.80;;;4.18;;
63699;SDS011;49845;47.130;142.766;2023-01-16T07:44:25;5.65;;;4.47;;
63699;SDS011;49845;47.130;142.766;2023-01-16T07:46:55;14.00;;;6.70;;
63699;SDS011;49845;47.130;142.766;2023-01-16T07:49:26;82.28;;;22.52;;
63699;SDS011;49845;47.130;142.766;2023-01-16T07:51:56;31.73;;;11.40;;
63699;SDS011;49845;47.130;142.766;2023-01-16T07:54:27;32.33;;;11.45;;
63699;SDS011;49845;47.130;142.766;2023-01-16T07:56:57;36.10;;;11.88;;
63699;SDS011;49845;47.130;142.766;2023-01-16T07:59:29;39.88;;;13.82;;
63699;SDS011;49845;47.130;142.766;2023-01-16T08:02:00;55.95;;;18.05;;
63699;SDS011;49845;47.130;142.766;2023-01-16T08:04:46;67.10;;;21.38;;
63699;SDS011;49845;47.130;142.766;2023-01-16T08:07:16;49.58;;;17.60;;
63699;SDS011;49845;47.130;142.766;2023-01-16T08:09:47;39.97;;;14.80;;
63699;SDS011;49845;47.130;142.766;2023-01-16T08:12:18;52.30;;;16.60;;
63699;SDS011;49845;47.130;142.766;2023-01-16T08:14:50;56.05;;;19.15;;
63699;SDS011;49845;47.130;142.766;2023-01-16T08:17:20;39.03;;;15.40;;
63699;SDS011;49845;47.130;142.766;2023-01-16T08:19:51;41.17;;;16.42;;
63699;SDS011;49845;47.130;142.766;2023-01-16T08:22:21;29.17;;;11.55;;
63699;SDS011;49845;47.130;142.766;2023-01-16T08:24:59;31.85;;;12.30;;
63699;SDS011;49845;47.130;142.766;2023-01-16T08:27:29;27.90;;;11.32;;
63699;SDS011;49845;47.130;142.766;2023-01-16T08:30:02;14.10;;;7.78;;
63699;SDS011;49845;47.130;142.766;2023-01-16T08:32:33;9.00;;;5.55;;
63699;SDS011;49845;47.130;142.766;2023-01-16T08:35:03;5.68;;;4.65;;
63699;SDS011;49845;47.130;142.766;2023-01-16T08:37:37;7.47;;;5.18;;
63699;SDS011;49845;47.130;142.766;2023-01-16T08:40:16;21.88;;;8.40;;
63699;SDS011;49845;47.130;142.766;2023-01-16T08:42:49;6.00;;;4.40;;
63699;SDS011;49845;47.130;142.766;2023-01-16T08:45:47;7.03;;;4.50;;
63699;SDS011;49845;47.130;142.766;2023-01-16T08:48:49;5.45;;;4.03;;
63699;SDS011;49845;47.130;142.766;2023-01-16T08:51:36;16.25;;;7.18;;
63699;SDS011;49845;47.130;142.766;2023-01-16T08:54:08;29.08;;;8.27;;
63699;SDS011;49845;47.130;142.766;2023-01-16T08:56:38;66.40;;;15.57;;
63699;SDS011;49845;47.130;142.766;2023-01-16T08:59:13;130.82;;;27.90;;
63699;SDS011;49845;47.130;142.766;2023-01-16T09:01:45;160.30;;;33.58;;
63699;SDS011;49845;47.130;142.766;2023-01-16T09:04:16;66.47;;;15.68;;
63699;SDS011;49845;47.130;142.766;2023-01-16T09:06:48;26.70;;;9.30;;
63699;SDS011;49845;47.130;142.766;2023-01-16T09:09:21;10.82;;;5.75;;
63699;SDS011;49845;47.130;142.766;2023-01-16T09:11:54;13.45;;;7.35;;
63699;SDS011;49845;47.130;142.766;2023-01-16T09:14:43;43.85;;;12.55;;
63699;SDS011;49845;47.130;142.766;2023-01-16T09:17:16;88.68;;;33.67;;
63699;SDS011;49845;47.130;142.766;2023-01-16T09:19:48;63.53;;;31.48;;
63699;SDS011;49845;47.130;142.766;2023-01-16T09:22:19;27.77;;;16.42;;
63699;SDS011;49845;47.130;142.766;2023-01-16T09:24:51;14.10;;;10.18;;
63699;SDS011;49845;47.130;142.766;2023-01-16T09:27:23;8.05;;;6.28;;
63699;SDS011;49845;47.130;142.766;2023-01-16T09:29:54;408.83;;;80.88;;
63699;SDS011;49845;47.130;142.766;2023-01-16T09:32:28;285.65;;;58.13;;
63699;SDS011;49845;47.130;142.766;2023-01-16T09:35:01;368.92;;;70.97;;
63699;SDS011;49845;47.130;142.766;2023-01-16T09:37:34;211.57;;;46.17;;
63699;SDS011;49845;47.130;142.766;2023-01-16T09:40:07;280.95;;;69.88;;
63699;SDS011;49845;47.130;142.766;2023-01-16T09:42:46;437.75;;;115.50;;
63699;SDS011;49845;47.130;142.766;2023-01-16T09:45:43;232.10;;;80.80;;
63699;SDS011;49845;47.130;142.766;2023-01-16T09:48:18;57.40;;;27.13;;
63699;SDS011;49845;47.130;142.766;2023-01-16T09:50:56;66.40;;;20.45;;
63699;SDS011;49845;47.130;142.766;2023-01-16T09:53:33;68.97;;;18.77;;
63699;SDS011;49845;47.130;142.766;2023-01-16T09:56:27;83.45;;;24.23;;
63699;SDS011;49845;47.130;142.766;2023-01-16T09:59:20;157.45;;;39.58;;
63699;SDS011;49845;47.130;142.766;2023-01-16T10:01:59;191.15;;;47.53;;
63699;SDS011;49845;47.130;142.766;2023-01-16T10:04:39;124.22;;;33.47;;
63699;SDS011;49845;47.130;142.766;2023-01-16T10:13:11;53.80;;;19.75;;
63699;SDS011;49845;47.130;142.766;2023-01-16T10:15:57;43.22;;;15.02;;
63699;SDS011;49845;47.130;142.766;2023-01-16T10:18:42;29.02;;;11.00;;
63699;SDS011;49845;47.130;142.766;2023-01-16T10:21:26;7.95;;;7.07;;
63699;SDS011;49845;47.130;142.766;2023-01-16T10:24:10;7.13;;;6.53;;
63699;SDS011;49845;47.130;142.766;2023-01-16T10:26:52;6.68;;;5.97;;
63699;SDS011;49845;47.130;142.766;2023-01-16T10:29:29;6.93;;;5.57;;
63699;SDS011;49845;47.130;142.766;2023-01-16T10:32:05;5.85;;;5.28;;
63699;SDS011;49845;47.130;142.766;2023-01-16T10:34:44;6.40;;;5.80;;
63699;SDS011;49845;47.130;142.766;2023-01-16T10:37:24;6.07;;;5.47;;
63699;SDS011;49845;47.130;142.766;2023-01-16T10:39:57;29.10;;;12.77;;
63699;SDS011;49845;47.130;142.766;2023-01-16T10:42:31;33.00;;;13.32;;
63699;SDS011;49845;47.130;142.766;2023-01-16T10:45:23;86.65;;;23.52;;
63699;SDS011;49845;47.130;142.766;2023-01-16T10:48:14;157.35;;;44.22;;
63699;SDS011;49845;47.130;142.766;2023-01-16T10:51:03;107.43;;;35.33;;
63699;SDS011;49845;47.130;142.766;2023-01-16T10:53:38;67.88;;;25.05;;
63699;SDS011;49845;47.130;142.766;2023-01-16T10:56:10;13.52;;;7.90;;
63699;SDS011;49845;47.130;142.766;2023-01-16T10:58:42;10.15;;;8.48;;
63699;SDS011;49845;47.130;142.766;2023-01-16T11:01:13;7.45;;;6.82;;
63699;SDS011;49845;47.130;142.766;2023-01-16T11:03:47;10.55;;;9.20;;
63699;SDS011;49845;47.130;142.766;2023-01-16T11:06:20;28.02;;;15.73;;
63699;SDS011;49845;47.130;142.766;2023-01-16T11:09:00;11.45;;;9.35;;
63699;SDS011;49845;47.130;142.766;2023-01-16T11:11:33;7.07;;;6.43;;
63699;SDS011;49845;47.130;142.766;2023-01-16T11:14:23;5.95;;;5.55;;
63699;SDS011;49845;47.130;142.766;2023-01-16T11:17:22;6.88;;;5.90;;
63699;SDS011;49845;47.130;142.766;2023-01-16T11:20:14;6.68;;;5.10;;
63699;SDS011;49845;47.130;142.766;2023-01-16T11:22:50;5.32;;;4.85;;
63699;SDS011;49845;47.130;142.766;2023-01-16T11:25:28;5.18;;;4.88;;
63699;SDS011;49845;47.130;142.766;2023-01-16T11:28:02;5.53;;;5.13;;
63699;SDS011;49845;47.130;142.766;2023-01-16T11:30:38;5.82;;;5.43;;
63699;SDS011;49845;47.130;142.766;2023-01-16T11:33:14;5.30;;;4.90;;
63699;SDS011;49845;47.130;142.766;2023-01-16T11:35:50;6.25;;;5.75;;
63699;SDS011;49845;47.130;142.766;2023-01-16T11:38:24;5.45;;;4.53;;
63699;SDS011;49845;47.130;142.766;2023-01-16T11:41:00;5.13;;;4.80;;
63699;SDS011;49845;47.130;142.766;2023-01-16T11:43:35;5.10;;;4.70;;
63699;SDS011;49845;47.130;142.766;2023-01-16T11:46:30;5.07;;;4.78;;
63699;SDS011;49845;47.130;142.766;2023-01-16T11:49:13;4.90;;;4.60;;
63699;SDS011;49845;47.130;142.766;2023-01-16T11:51:48;5.10;;;4.80;;
63699;SDS011;49845;47.130;142.766;2023-01-16T11:54:24;9.30;;;6.35;;
63699;SDS011;49845;47.130;142.766;2023-01-16T12:00:02;6.28;;;5.78;;
63699;SDS011;49845;47.130;142.766;2023-01-16T12:03:03;5.35;;;5.00;;
63699;SDS011;49845;47.130;142.766;2023-01-16T12:05:58;5.00;;;4.70;;
63699;SDS011;49845;47.130;142.766;2023-01-16T12:08:40;6.35;;;5.85;;
63699;SDS011;49845;47.130;142.766;2023-01-16T12:11:37;7.32;;;6.25;;
63699;SDS011;49845;47.130;142.766;2023-01-16T12:14:26;5.10;;;4.80;;
63699;SDS011;49845;47.130;142.766;2023-01-16T12:17:05;6.63;;;6.22;;
63699;SDS011;49845;47.130;142.766;2023-01-16T12:19:58;5.47;;;5.07;;
63699;SDS011;49845;47.130;142.766;2023-01-16T12:22:42;4.80;;;4.50;;
63699;SDS011;49845;47.130;142.766;2023-01-16T12:25:29;6.38;;;5.28;;
63699;SDS011;49845;47.130;142.766;2023-01-16T12:28:14;5.43;;;4.95;;
63699;SDS011;49845;47.130;142.766;2023-01-16T12:31:08;7.70;;;6.18;;
63699;SDS011;49845;47.130;142.766;2023-01-16T12:34:10;87.55;;;20.48;;
63699;SDS011;49845;47.130;142.766;2023-01-16T12:37:00;53.97;;;18.23;;
63699;SDS011;49845;47.130;142.766;2023-01-16T12:39:44;36.00;;;15.10;;
63699;SDS011;49845;47.130;142.766;2023-01-16T12:42:25;6.75;;;6.15;;
63699;SDS011;49845;47.130;142.766;2023-01-16T12:48:08;6.95;;;5.20;;
63699;SDS011;49845;47.130;142.766;2023-01-16T12:50:56;18.38;;;9.18;;
63699;SDS011;49845;47.130;142.766;2023-01-16T12:53:53;19.35;;;7.68;;
63699;SDS011;49845;47.130;142.766;2023-01-16T12:56:38;7.10;;;6.40;;
63699;SDS011;49845;47.130;142.766;2023-01-16T12:59:17;7.25;;;5.70;;
63699;SDS011;49845;47.130;142.766;2023-01-16T13:01:51;14.50;;;7.22;;
63699;SDS011;49845;47.130;142.766;2023-01-16T13:04:28;8.82;;;6.88;;
63699;SDS011;49845;47.130;142.766;2023-01-16T13:07:05;7.47;;;6.85;;
63699;SDS011;49845;47.130;142.766;2023-01-16T13:09:44;7.38;;;6.68;;
63699;SDS011;49845;47.130;142.766;2023-01-16T13:12:39;5.07;;;4.78;;
63699;SDS011;49845;47.130;142.766;2023-01-16T13:15:33;5.43;;;5.03;;
63699;SDS011;49845;47.130;142.766;2023-01-16T13:18:06;5.03;;;4.63;;
63699;SDS011;49845;47.130;142.766;2023-01-16T13:20:46;5.00;;;4.70;;
63699;SDS011;49845;47.130;142.766;2023-01-16T13:23:26;4.72;;;4.43;;
63699;SDS011;49845;47.130;142.766;2023-01-16T13:26:03;5.38;;;4.88;;
63699;SDS011;49845;47.130;142.766;2023-01-16T13:28:39;6.15;;;5.55;;
63699;SDS011;49845;47.130;142.766;2023-01-16T13:31:24;5.88;;;5.30;;
63699;SDS011;49845;47.130;142.766;2023-01-16T13:34:05;10.65;;;7.07;;
63699;SDS011;49845;47.130;142.766;2023-01-16T13:39:59;12.57;;;7.57;;
63699;SDS011;49845;47.130;142.766;2023-01-16T13:42:51;40.83;;;16.35;;
63699;SDS011;49845;47.130;142.766;2023-01-16T13:45:49;5.30;;;4.85;;
63699;SDS011;49845;47.130;142.766;2023-01-16T13:48:22;4.97;;;4.57;;
63699;SDS011;49845;47.130;142.766;2023-01-16T13:51:08;4.90;;;4.60;;
63699;SDS011;49845;47.130;142.766;2023-01-16T13:53:46;6.30;;;5.80;;
63699;SDS011;49845;47.130;142.766;2023-01-16T13:56:22;7.25;;;6.40;;
63699;SDS011;49845;47.130;142.766;2023-01-16T13:58:58;8.18;;;6.60;;
63699;SDS011;49845;47.130;142.766;2023-01-16T14:01:54;7.20;;;6.07;;
63699;SDS011;49845;47.130;142.766;2023-01-16T14:08:18;61.15;;;20.63;;
63699;SDS011;49845;47.130;142.766;2023-01-16T14:15:19;49.72;;;17.48;;
63699;SDS011;49845;47.130;142.766;2023-01-16T14:18:41;28.90;;;12.00;;
63699;SDS011;49845;47.130;142.766;2023-01-16T14:21:55;25.50;;;11.77;;
63699;SDS011;49845;47.130;142.766;2023-01-16T14:25:24;86.35;;;24.23;;
63699;SDS011;49845;47.130;142.766;2023-01-16T14:28:18;57.28;;;15.15;;
63699;SDS011;49845;47.130;142.766;2023-01-16T14:30:57;90.45;;;23.48;;
63699;SDS011;49845;47.130;142.766;2023-01-16T14:33:58;40.85;;;13.10;;
63699;SDS011;49845;47.130;142.766;2023-01-16T14:37:59;27.20;;;8.93;;
63699;SDS011;49845;47.130;142.766;2023-01-16T14:41:02;18.58;;;8.90;;
63699;SDS011;49845;47.130;142.766;2023-01-16T14:47:52;18.40;;;9.82;;
63699;SDS011;49845;47.130;142.766;2023-01-16T14:51:11;13.40;;;6.30;;
63699;SDS011;49845;47.130;142.766;2023-01-16T14:54:17;8.27;;;5.68;;
63699;SDS011;49845;47.130;142.766;2023-01-16T14:57:34;3.95;;;3.72;;
63699;SDS011;49845;47.130;142.766;2023-01-16T15:04:09;4.80;;;4.18;;
63699;SDS011;49845;47.130;142.766;2023-01-16T15:07:43;4.95;;;4.50;;
63699;SDS011;49845;47.130;142.766;2023-01-16T15:10:42;5.38;;;4.00;;
63699;SDS011;49845;47.130;142.766;2023-01-16T15:14:17;4.50;;;4.03;;
63699;SDS011;49845;47.130;142.766;2023-01-16T15:17:14;12.73;;;4.55;;
63699;SDS011;49845;47.130;142.766;2023-01-16T15:20:42;6.30;;;4.50;;
63699;SDS011;49845;47.130;142.766;2023-01-16T15:23:47;6.60;;;5.40;;
63699;SDS011;49845;47.130;142.766;2023-01-16T15:29:36;4.93;;;4.50;;
63699;SDS011;49845;47.130;142.766;2023-01-16T15:32:22;5.03;;;4.53;;
63699;SDS011;49845;47.130;142.766;2023-01-16T15:35:12;4.93;;;4.53;;
63699;SDS011;49845;47.130;142.766;2023-01-16T15:38:02;6.97;;;4.75;;
63699;SDS011;49845;47.130;142.766;2023-01-16T15:40:48;5.07;;;4.68;;
63699;SDS011;49845;47.130;142.766;2023-01-16T15:43:31;5.30;;;4.88;;
63699;SDS011;49845;47.130;142.766;2023-01-16T15:46:25;15.57;;;8.68;;
63699;SDS011;49845;47.130;142.766;2023-01-16T15:49:30;14.82;;;7.88;;
63699;SDS011;49845;47.130;142.766;2023-01-16T15:52:41;7.97;;;6.50;;
63699;SDS011;49845;47.130;142.766;2023-01-16T15:56:05;6.80;;;6.20;;
63699;SDS011;49845;47.130;142.766;2023-01-16T15:59:30;5.28;;;4.90;;
63699;SDS011;49845;47.130;142.766;2023-01-16T16:02:31;6.93;;;5.57;;
63699;SDS011;49845;47.130;142.766;2023-01-16T16:05:18;4.65;;;4.35;;
63699;SDS011;49845;47.130;142.766;2023-01-16T16:10:47;7.38;;;5.47;;